createdAt,value
2017-07-26T00:01:41.733Z,14.70
2017-07-26T00:04:09.269Z,14.70
2017-07-26T00:06:37.728Z,14.70
2017-07-26T00:09:05.309Z,14.70
2017-07-26T00:11:33.613Z,14.80
2017-07-26T00:14:01.513Z,14.70
2017-07-26T00:16:29.057Z,14.80
2017-07-26T00:18:56.597Z,14.80
2017-07-26T00:21:24.317Z,14.80
2017-07-26T00:23:52.044Z,14.80
2017-07-26T00:26:19.572Z,14.80
2017-07-26T00:28:48.196Z,14.80
2017-07-26T00:31:15.738Z,14.80
2017-07-26T00:33:43.273Z,14.80
2017-07-26T00:36:10.848Z,14.80
2017-07-26T00:38:38.401Z,14.80
2017-07-26T00:41:06.169Z,14.80
2017-07-26T00:43:33.713Z,14.80
2017-07-26T00:46:02.057Z,14.80
2017-07-26T00:48:29.633Z,14.80
2017-07-26T00:50:57.465Z,14.80
2017-07-26T00:53:25.327Z,14.80
2017-07-26T00:55:52.870Z,14.80
2017-07-26T00:58:20.406Z,14.80
2017-07-26T01:00:48.421Z,14.90
2017-07-26T01:03:15.973Z,14.90
2017-07-26T01:05:43.525Z,14.90
2017-07-26T01:08:11.109Z,14.90
2017-07-26T01:10:38.680Z,14.90
2017-07-26T01:13:06.218Z,14.90
2017-07-26T01:15:34.314Z,14.80
2017-07-26T01:18:01.853Z,14.90
2017-07-26T01:20:29.388Z,14.90
2017-07-26T01:22:57.009Z,14.90
2017-07-26T01:25:24.589Z,14.90
2017-07-26T01:27:53.229Z,14.90
2017-07-26T01:30:20.765Z,14.90
2017-07-26T01:32:48.305Z,14.90
2017-07-26T01:35:16.845Z,14.90
2017-07-26T01:37:44.381Z,14.90
2017-07-26T01:40:12.269Z,14.90
2017-07-26T01:42:39.813Z,14.90
2017-07-26T01:45:07.354Z,14.90
2017-07-26T01:47:34.931Z,14.90
2017-07-26T01:50:03.016Z,14.90
2017-07-26T01:52:30.548Z,14.90
2017-07-26T01:54:58.091Z,14.90
2017-07-26T01:57:25.904Z,14.90
2017-07-26T01:59:53.449Z,14.90
2017-07-26T02:02:21.024Z,14.90
2017-07-26T02:04:48.888Z,14.90
2017-07-26T02:07:16.429Z,14.90
2017-07-26T02:09:44.022Z,14.90
2017-07-26T02:12:11.563Z,14.90
2017-07-26T02:14:39.532Z,15.00
2017-07-26T02:17:07.060Z,15.00
2017-07-26T02:19:34.608Z,15.00
2017-07-26T02:22:03.137Z,15.00
2017-07-26T02:24:30.675Z,15.00
2017-07-26T02:26:58.257Z,15.00
2017-07-26T02:29:25.783Z,15.00
2017-07-26T02:31:53.356Z,15.00
2017-07-26T02:34:20.897Z,15.00
2017-07-26T02:36:48.864Z,15.00
2017-07-26T02:39:16.401Z,15.00
2017-07-26T02:41:43.940Z,15.00
2017-07-26T02:44:11.665Z,15.00
2017-07-26T02:46:39.241Z,15.00
2017-07-26T02:49:06.777Z,15.00
2017-07-26T02:51:34.689Z,15.00
2017-07-26T02:54:02.228Z,15.00
2017-07-26T02:56:29.768Z,15.00
2017-07-26T02:58:59.816Z,15.00
2017-07-26T03:01:27.354Z,15.00
2017-07-26T03:03:55.313Z,15.00
2017-07-26T03:06:22.856Z,15.00
2017-07-26T03:08:51.284Z,15.00
2017-07-26T03:11:18.816Z,15.00
2017-07-26T03:13:46.420Z,15.10
2017-07-26T03:16:13.950Z,15.10
2017-07-26T03:18:41.490Z,15.10
2017-07-26T03:21:09.596Z,15.10
2017-07-26T03:23:37.133Z,15.10
2017-07-26T03:26:04.668Z,15.10
2017-07-26T03:28:33.073Z,15.10
2017-07-26T03:31:00.650Z,15.10
2017-07-26T03:33:28.229Z,15.10
2017-07-26T03:35:55.770Z,15.10
2017-07-26T03:38:23.844Z,15.10
2017-07-26T03:40:51.387Z,15.10
2017-07-26T03:43:19.016Z,15.10
2017-07-26T03:45:48.581Z,15.10
2017-07-26T03:48:16.117Z,15.10
2017-07-26T03:50:43.696Z,15.10
2017-07-26T03:53:11.269Z,15.10
2017-07-26T03:55:38.800Z,15.10
2017-07-26T03:58:07.912Z,15.10
2017-07-26T04:00:35.585Z,15.10
2017-07-26T04:03:03.116Z,15.10
2017-07-26T04:05:33.573Z,15.10
2017-07-26T04:08:01.108Z,15.10
2017-07-26T04:10:28.645Z,15.10
2017-07-26T04:12:56.222Z,15.20
2017-07-26T04:15:26.517Z,15.10
2017-07-26T04:17:54.817Z,15.10
2017-07-26T04:20:22.353Z,15.10
2017-07-26T04:22:50.694Z,15.20
2017-07-26T04:25:18.763Z,15.20
2017-07-26T04:27:46.297Z,15.20
2017-07-26T04:30:13.837Z,15.20
2017-07-26T04:32:41.649Z,15.20
2017-07-26T04:35:09.181Z,15.20
2017-07-26T04:37:36.770Z,15.20
2017-07-26T04:40:04.312Z,15.20
2017-07-26T04:42:31.893Z,15.20
2017-07-26T04:44:59.424Z,15.20
2017-07-26T04:47:27.010Z,15.10
2017-07-26T04:49:54.813Z,15.10
2017-07-26T04:52:23.356Z,15.10
2017-07-26T04:54:50.902Z,15.10
2017-07-26T04:57:18.504Z,15.10
2017-07-26T04:59:46.857Z,15.10
2017-07-26T05:02:14.401Z,15.10
2017-07-26T05:04:43.395Z,15.00
2017-07-26T05:07:10.930Z,15.00
2017-07-26T05:09:38.585Z,15.00
2017-07-26T05:12:06.130Z,15.00
2017-07-26T05:14:34.480Z,15.00
2017-07-26T05:17:02.015Z,15.00
2017-07-26T05:19:29.757Z,15.00
2017-07-26T05:21:57.290Z,15.00
2017-07-26T05:24:25.610Z,15.00
2017-07-26T05:26:53.262Z,15.00
2017-07-26T05:29:20.808Z,15.00
2017-07-26T05:31:48.388Z,15.00
2017-07-26T05:34:15.969Z,15.00
2017-07-26T05:36:43.510Z,15.00
2017-07-26T05:39:11.093Z,15.00
2017-07-26T05:41:38.638Z,15.00
2017-07-26T05:44:06.304Z,15.00
2017-07-26T05:46:33.893Z,15.00
2017-07-26T05:49:01.433Z,15.00
2017-07-26T05:51:31.335Z,15.00
2017-07-26T05:53:58.956Z,15.00
2017-07-26T05:56:27.269Z,15.00
2017-07-26T05:58:54.844Z,14.90
2017-07-26T06:01:22.389Z,15.00
2017-07-26T06:03:50.106Z,15.00
2017-07-26T06:06:17.640Z,15.00
2017-07-26T06:08:45.222Z,15.00
2017-07-26T06:11:12.762Z,15.10
2017-07-26T06:13:40.345Z,15.10
2017-07-26T06:16:07.880Z,15.10
2017-07-26T06:18:35.849Z,15.20
2017-07-26T06:21:03.388Z,15.20
2017-07-26T06:23:30.934Z,15.20
2017-07-26T06:25:58.864Z,15.30
2017-07-26T06:28:26.417Z,15.30
2017-07-26T06:30:54.469Z,15.40
2017-07-26T06:33:22.010Z,15.50
2017-07-26T06:35:49.552Z,15.70
2017-07-26T06:38:17.131Z,15.80
2017-07-26T06:40:44.669Z,15.80
2017-07-26T06:43:12.885Z,15.80
2017-07-26T06:45:40.427Z,15.90
2017-07-26T06:48:07.973Z,15.80
2017-07-26T06:50:35.565Z,15.80
2017-07-26T06:53:03.788Z,15.80
2017-07-26T06:55:32.243Z,15.90
2017-07-26T06:57:59.829Z,15.90
2017-07-26T07:00:27.398Z,15.90
2017-07-26T07:02:55.330Z,15.90
2017-07-26T07:05:22.873Z,15.90
2017-07-26T07:07:50.415Z,15.90
2017-07-26T07:10:17.993Z,15.90
2017-07-26T07:12:45.532Z,15.90
2017-07-26T07:15:13.449Z,15.90
2017-07-26T07:17:41.031Z,15.90
2017-07-26T07:20:09.330Z,15.90
2017-07-26T07:22:37.073Z,15.80
2017-07-26T07:25:05.380Z,15.90
2017-07-26T07:27:32.916Z,15.90
2017-07-26T07:30:00.940Z,16.00
2017-07-26T07:32:28.500Z,15.90
2017-07-26T07:34:56.045Z,15.90
2017-07-26T07:37:24.271Z,15.90
2017-07-26T07:39:51.829Z,15.90
2017-07-26T07:42:20.129Z,15.80
2017-07-26T07:44:47.782Z,15.80
2017-07-26T07:47:15.363Z,15.90
2017-07-26T07:49:42.940Z,16.00
2017-07-26T07:52:10.519Z,16.20
2017-07-26T07:54:38.884Z,16.40
2017-07-26T07:57:06.610Z,16.60
2017-07-26T07:59:34.199Z,16.70
2017-07-26T08:02:01.741Z,16.80
2017-07-26T08:04:29.648Z,16.80
2017-07-26T08:06:57.185Z,16.80
2017-07-26T08:09:24.725Z,16.90
2017-07-26T08:11:57.242Z,16.90
2017-07-26T08:14:25.097Z,17.00
2017-07-26T08:16:52.648Z,17.00
2017-07-26T08:19:20.217Z,17.10
2017-07-26T08:21:47.829Z,17.20
2017-07-26T08:24:15.426Z,17.30
2017-07-26T08:26:43.010Z,17.40
2017-07-26T08:29:10.558Z,17.50
2017-07-26T08:31:38.432Z,17.40
2017-07-26T08:34:05.973Z,17.30
2017-07-26T08:36:33.569Z,17.30
2017-07-26T08:39:01.115Z,17.30
2017-07-26T08:41:29.492Z,17.30
2017-07-26T08:43:57.039Z,17.30
2017-07-26T08:46:24.605Z,17.30
2017-07-26T08:48:52.489Z,17.30
2017-07-26T08:51:20.677Z,17.30
2017-07-26T08:53:48.222Z,17.40
2017-07-26T08:56:15.762Z,17.50
2017-07-26T08:58:43.340Z,17.70
2017-07-26T09:01:10.921Z,17.90
2017-07-26T09:03:38.505Z,17.90
2017-07-26T09:06:06.818Z,17.90
2017-07-26T09:08:34.589Z,17.90
2017-07-26T09:11:02.140Z,17.90
2017-07-26T09:13:32.291Z,17.90
2017-07-26T09:16:00.633Z,18.00
2017-07-26T09:18:28.173Z,17.90
2017-07-26T09:20:55.825Z,18.10
2017-07-26T09:23:24.145Z,18.40
2017-07-26T09:25:55.615Z,18.40
2017-07-26T09:28:23.241Z,18.60
2017-07-26T09:30:50.781Z,18.60
2017-07-26T09:33:19.099Z,18.80
2017-07-26T09:35:46.684Z,18.70
2017-07-26T09:38:15.345Z,18.80
2017-07-26T09:40:43.213Z,18.90
2017-07-26T09:43:10.761Z,19.00
2017-07-26T09:45:42.218Z,19.00
2017-07-26T09:48:09.818Z,19.00
2017-07-26T09:50:37.369Z,19.10
2017-07-26T09:53:05.298Z,19.20
2017-07-26T09:55:33.079Z,19.40
2017-07-26T09:58:00.629Z,19.50
2017-07-26T10:00:28.621Z,19.70
2017-07-26T10:02:56.165Z,19.80
2017-07-26T10:05:23.723Z,19.80
2017-07-26T10:07:51.309Z,19.80
2017-07-26T10:10:19.584Z,19.80
2017-07-26T10:12:47.129Z,20.00
2017-07-26T10:15:14.668Z,20.10
2017-07-26T10:17:42.254Z,20.10
2017-07-26T10:20:09.844Z,19.90
2017-07-26T10:22:37.387Z,19.90
2017-07-26T10:25:05.061Z,19.90
2017-07-26T10:27:32.605Z,19.90
2017-07-26T10:30:00.270Z,19.90
2017-07-26T10:32:27.993Z,20.00
2017-07-26T10:34:55.604Z,20.20
2017-07-26T10:37:23.565Z,20.40
2017-07-26T10:39:51.102Z,20.40
2017-07-26T10:42:18.643Z,20.30
2017-07-26T10:44:46.229Z,20.20
2017-07-26T10:47:13.767Z,20.10
2017-07-26T10:49:41.782Z,20.10
2017-07-26T10:52:09.326Z,20.00
2017-07-26T10:54:36.867Z,19.90
2017-07-26T10:57:04.756Z,20.00
2017-07-26T10:59:32.329Z,20.10
2017-07-26T11:01:59.873Z,20.30
2017-07-26T11:04:27.605Z,20.50
2017-07-26T11:06:55.143Z,20.80
2017-07-26T11:09:22.761Z,21.00
2017-07-26T11:11:50.313Z,21.10
2017-07-26T11:14:21.556Z,21.20
2017-07-26T11:16:49.197Z,21.20
2017-07-26T11:19:20.486Z,21.40
2017-07-26T11:21:48.235Z,21.60
2017-07-26T11:24:15.770Z,21.70
2017-07-26T11:26:43.630Z,21.70
2017-07-26T11:29:11.215Z,21.60
2017-07-26T11:31:39.110Z,21.50
2017-07-26T11:34:06.692Z,21.50
2017-07-26T11:36:34.226Z,21.50
2017-07-26T11:39:01.764Z,21.70
2017-07-26T11:41:29.655Z,21.90
2017-07-26T11:43:57.238Z,22.10
2017-07-26T11:46:24.801Z,22.20
2017-07-26T11:48:52.337Z,22.30
2017-07-26T11:51:19.905Z,22.40
2017-07-26T11:53:47.437Z,22.60
2017-07-26T11:56:16.603Z,22.50
2017-07-26T11:58:44.452Z,22.60
2017-07-26T12:01:11.989Z,22.70
2017-07-26T12:03:39.564Z,22.80
2017-07-26T12:06:07.137Z,22.90
2017-07-26T12:08:35.441Z,23.00
2017-07-26T12:11:03.053Z,23.00
2017-07-26T12:13:30.585Z,23.10
2017-07-26T12:15:58.353Z,23.00
2017-07-26T12:18:26.986Z,23.00
2017-07-26T12:20:55.350Z,23.20
2017-07-26T12:23:22.903Z,23.20
2017-07-26T12:25:51.230Z,23.00
2017-07-26T12:28:18.835Z,23.00
2017-07-26T12:30:46.366Z,22.90
2017-07-26T12:33:14.073Z,22.80
2017-07-26T12:35:41.610Z,22.90
2017-07-26T12:38:09.257Z,23.00
2017-07-26T12:40:36.801Z,23.20
2017-07-26T12:43:08.081Z,23.30
2017-07-26T12:45:35.626Z,23.40
2017-07-26T12:48:03.236Z,23.30
2017-07-26T12:50:34.473Z,23.10
2017-07-26T12:53:02.029Z,23.10
2017-07-26T12:55:29.673Z,22.90
2017-07-26T12:57:57.822Z,22.70
2017-07-26T13:00:25.398Z,22.60
2017-07-26T13:02:52.933Z,22.40
2017-07-26T13:05:21.345Z,22.40
2017-07-26T13:07:48.980Z,22.30
2017-07-26T13:10:16.521Z,22.30
2017-07-26T13:12:44.254Z,22.30
2017-07-26T13:15:11.865Z,22.10
2017-07-26T13:17:39.423Z,21.90
2017-07-26T13:20:07.001Z,22.10
2017-07-26T13:22:34.537Z,22.30
2017-07-26T13:25:02.069Z,22.60
2017-07-26T13:27:35.062Z,22.70
2017-07-26T13:30:03.376Z,23.00
2017-07-26T13:32:30.920Z,23.00
2017-07-26T13:34:58.502Z,23.30
2017-07-26T13:37:26.282Z,23.50
2017-07-26T13:39:53.824Z,23.50
2017-07-26T13:42:21.553Z,23.50
2017-07-26T13:44:49.853Z,23.50
2017-07-26T13:47:17.616Z,23.50
2017-07-26T13:49:45.201Z,23.40
2017-07-26T13:52:13.784Z,23.50
2017-07-26T13:54:41.327Z,23.60
2017-07-26T13:57:08.985Z,23.70
2017-07-26T13:59:36.524Z,23.80
2017-07-26T14:02:05.759Z,23.90
2017-07-26T14:04:33.404Z,24.00
2017-07-26T14:07:00.949Z,24.00
2017-07-26T14:09:28.526Z,24.00
2017-07-26T14:11:57.264Z,24.00
2017-07-26T14:14:24.809Z,24.00
2017-07-26T14:16:52.352Z,24.10
2017-07-26T14:19:20.345Z,24.10
2017-07-26T14:21:47.877Z,24.10
2017-07-26T14:24:15.443Z,24.10
2017-07-26T14:26:43.025Z,24.20
2017-07-26T14:29:10.555Z,24.20
2017-07-26T14:31:38.090Z,24.40
2017-07-26T14:34:05.729Z,24.60
2017-07-26T14:36:33.438Z,24.70
2017-07-26T14:39:01.086Z,24.90
2017-07-26T14:41:28.685Z,24.90
2017-07-26T14:43:56.250Z,25.00
2017-07-26T14:46:23.826Z,25.10
2017-07-26T14:48:51.370Z,25.20
2017-07-26T14:51:19.053Z,25.30
2017-07-26T14:53:47.252Z,25.40
2017-07-26T14:56:14.834Z,25.50
2017-07-26T14:58:45.022Z,25.50
2017-07-26T15:01:12.557Z,25.70
2017-07-26T15:03:40.125Z,25.70
2017-07-26T15:06:07.653Z,25.70
2017-07-26T15:08:35.729Z,25.70
2017-07-26T15:11:03.259Z,25.70
2017-07-26T15:13:30.801Z,25.60
2017-07-26T15:15:59.300Z,25.50
2017-07-26T15:18:26.833Z,25.40
2017-07-26T15:20:55.177Z,25.20
2017-07-26T15:23:22.715Z,25.10
2017-07-26T15:25:50.539Z,25.00
2017-07-26T15:28:18.849Z,24.90
2017-07-26T15:30:46.377Z,24.90
2017-07-26T15:33:14.729Z,24.90
2017-07-26T15:35:42.267Z,24.90
2017-07-26T15:38:09.845Z,24.90
2017-07-26T15:40:37.382Z,24.80
2017-07-26T15:43:06.801Z,24.70
2017-07-26T15:45:34.349Z,24.60
2017-07-26T15:48:01.883Z,24.50
2017-07-26T15:50:29.494Z,24.40
2017-07-26T15:52:57.026Z,24.30
2017-07-26T15:55:26.506Z,24.30
2017-07-26T15:57:54.514Z,24.20
2017-07-26T16:00:22.049Z,24.20
2017-07-26T16:02:49.576Z,24.10
2017-07-26T16:05:19.591Z,24.30
2017-07-26T16:07:47.900Z,24.40
2017-07-26T16:10:15.433Z,24.40
2017-07-26T16:12:43.781Z,24.40
2017-07-26T16:15:11.742Z,24.30
2017-07-26T16:17:39.273Z,24.40
2017-07-26T16:20:06.802Z,24.50
2017-07-26T16:22:35.268Z,24.80
2017-07-26T16:25:02.838Z,24.80
2017-07-26T16:27:31.138Z,25.20
2017-07-26T16:30:00.282Z,25.20
2017-07-26T16:32:27.828Z,25.50
2017-07-26T16:34:55.362Z,25.60
2017-07-26T16:37:23.090Z,25.50
2017-07-26T16:39:51.548Z,25.50
2017-07-26T16:42:19.076Z,25.40
2017-07-26T16:44:46.617Z,25.50
2017-07-26T16:47:14.196Z,25.50
2017-07-26T16:49:41.789Z,25.60
2017-07-26T16:52:09.323Z,25.70
2017-07-26T16:54:36.853Z,25.70
2017-07-26T16:57:04.769Z,25.60
2017-07-26T16:59:32.604Z,25.40
2017-07-26T17:02:00.138Z,25.20
2017-07-26T17:04:28.465Z,24.90
2017-07-26T17:06:56.036Z,24.90
2017-07-26T17:09:23.566Z,24.80
2017-07-26T17:11:51.253Z,24.60
2017-07-26T17:14:18.790Z,24.40
2017-07-26T17:16:47.417Z,24.30
2017-07-26T17:19:15.138Z,24.20
2017-07-26T17:21:47.548Z,24.00
2017-07-26T17:24:15.157Z,23.90
2017-07-26T17:26:42.693Z,23.70
2017-07-26T17:29:10.230Z,23.60
2017-07-26T17:31:37.834Z,23.50
2017-07-26T17:34:05.380Z,23.40
2017-07-26T17:36:33.685Z,23.20
2017-07-26T17:39:01.450Z,23.20
2017-07-26T17:41:28.993Z,23.10
2017-07-26T17:43:56.729Z,23.00
2017-07-26T17:46:24.261Z,22.90
2017-07-26T17:48:51.832Z,22.80
2017-07-26T17:51:19.801Z,22.70
2017-07-26T17:53:47.657Z,22.60
2017-07-26T17:56:15.213Z,22.60
2017-07-26T17:58:42.854Z,22.50
2017-07-26T18:01:10.389Z,22.40
2017-07-26T18:03:38.729Z,22.30
2017-07-26T18:06:06.341Z,22.30
2017-07-26T18:08:33.917Z,22.20
2017-07-26T18:11:01.456Z,22.20
2017-07-26T18:13:29.033Z,22.10
2017-07-26T18:15:56.618Z,22.00
2017-07-26T18:18:24.337Z,21.90
2017-07-26T18:20:51.877Z,21.90
2017-07-26T18:23:19.456Z,21.80
2017-07-26T18:25:46.993Z,21.70
2017-07-26T18:28:14.537Z,21.60
2017-07-26T18:30:42.169Z,21.60
2017-07-26T18:33:09.701Z,21.50
2017-07-26T18:35:37.333Z,21.40
2017-07-26T18:38:04.865Z,21.30
2017-07-26T18:40:32.437Z,21.30
2017-07-26T18:42:59.986Z,21.20
2017-07-26T18:45:27.561Z,21.10
2017-07-26T18:47:55.132Z,21.00
2017-07-26T18:50:22.697Z,20.90
2017-07-26T18:52:50.347Z,20.90
2017-07-26T18:55:18.818Z,20.80
2017-07-26T18:57:46.354Z,20.70
2017-07-26T19:00:13.947Z,20.60
2017-07-26T19:02:41.473Z,20.50
2017-07-26T19:05:09.374Z,20.50
2017-07-26T19:07:36.917Z,20.40
2017-07-26T19:10:04.453Z,20.30
2017-07-26T19:12:32.102Z,20.20
2017-07-26T19:14:59.648Z,20.10
2017-07-26T19:17:27.952Z,20.00
2017-07-26T19:19:55.822Z,19.90
2017-07-26T19:22:23.366Z,19.90
2017-07-26T19:24:50.909Z,19.80
2017-07-26T19:27:24.381Z,19.60
2017-07-26T19:29:51.929Z,19.60
2017-07-26T19:32:20.931Z,19.50
2017-07-26T19:34:48.487Z,19.50
2017-07-26T19:37:16.122Z,19.40
2017-07-26T19:39:43.669Z,19.30
2017-07-26T19:42:13.319Z,19.30
2017-07-26T19:44:40.982Z,19.20
2017-07-26T19:47:08.525Z,19.10
2017-07-26T19:49:36.761Z,19.10
2017-07-26T19:52:05.078Z,19.00
2017-07-26T19:54:33.449Z,19.00
2017-07-26T19:57:05.129Z,19.00
2017-07-26T19:59:32.668Z,18.90
2017-07-26T20:02:00.627Z,18.90
2017-07-26T20:04:28.186Z,18.80
2017-07-26T20:06:55.733Z,18.80
2017-07-26T20:09:23.325Z,18.70
2017-07-26T20:11:51.919Z,18.70
2017-07-26T20:14:21.011Z,18.70
2017-07-26T20:16:48.573Z,18.60
2017-07-26T20:19:16.121Z,18.60
2017-07-26T20:21:43.777Z,18.50
2017-07-26T20:24:11.329Z,18.50
2017-07-26T20:26:38.922Z,18.40
2017-07-26T20:29:06.801Z,18.40
2017-07-26T20:31:34.348Z,18.30
2017-07-26T20:34:01.910Z,18.30
2017-07-26T20:36:29.886Z,18.30
2017-07-26T20:38:57.418Z,18.20
2017-07-26T20:41:24.964Z,18.20
2017-07-26T20:43:53.030Z,18.20
2017-07-26T20:46:20.578Z,18.20
2017-07-26T20:48:48.893Z,18.10
2017-07-26T20:51:16.513Z,18.10
2017-07-26T20:53:44.829Z,18.10
2017-07-26T20:56:12.377Z,18.00
2017-07-26T20:58:40.697Z,18.00
2017-07-26T21:01:08.228Z,18.00
2017-07-26T21:03:35.777Z,18.00
2017-07-26T21:06:03.784Z,18.00
2017-07-26T21:08:31.330Z,17.90
2017-07-26T21:10:58.874Z,17.90
2017-07-26T21:13:26.496Z,17.90
2017-07-26T21:15:54.805Z,17.90
2017-07-26T21:18:22.358Z,17.90
2017-07-26T21:20:50.017Z,17.90
2017-07-26T21:23:17.553Z,17.90
2017-07-26T21:25:45.140Z,17.90
2017-07-26T21:28:12.749Z,17.90
2017-07-26T21:30:40.298Z,17.90
2017-07-26T21:33:07.846Z,17.90
2017-07-26T21:35:35.711Z,17.90
2017-07-26T21:38:03.257Z,17.90
2017-07-26T21:40:30.805Z,17.90
2017-07-26T21:42:58.589Z,17.90
2017-07-26T21:45:26.136Z,17.90
2017-07-26T21:47:54.041Z,17.90
2017-07-26T21:50:21.576Z,17.90
2017-07-26T21:52:49.157Z,17.90
2017-07-26T21:55:16.994Z,17.90
2017-07-26T21:57:44.578Z,17.80
2017-07-26T22:00:17.885Z,17.80
2017-07-26T22:02:45.429Z,17.80
2017-07-26T22:05:12.973Z,17.80
2017-07-26T22:07:40.553Z,17.80
2017-07-26T22:10:08.157Z,17.80
2017-07-26T22:12:36.218Z,17.80
2017-07-26T22:15:03.761Z,17.70
2017-07-26T22:17:31.417Z,17.70
2017-07-26T22:19:59.001Z,17.60
2017-07-26T22:22:26.539Z,17.60
2017-07-26T22:24:56.208Z,17.60
2017-07-26T22:27:23.741Z,17.60
2017-07-26T22:29:51.338Z,17.50
2017-07-26T22:32:18.886Z,17.60
2017-07-26T22:34:46.425Z,17.60
2017-07-26T22:37:14.826Z,17.70
2017-07-26T22:39:42.368Z,17.70
2017-07-26T22:42:10.400Z,17.70
2017-07-26T22:44:37.940Z,17.70
2017-07-26T22:47:05.481Z,17.80
2017-07-26T22:49:33.053Z,17.80
2017-07-26T22:52:00.585Z,17.80
2017-07-26T22:54:29.321Z,17.80
2017-07-26T22:56:56.854Z,17.80
2017-07-26T22:59:24.440Z,17.80
2017-07-26T23:01:52.017Z,17.80
2017-07-26T23:04:19.560Z,17.80
2017-07-26T23:06:47.140Z,17.80
2017-07-26T23:09:14.694Z,17.80
2017-07-26T23:11:42.271Z,17.80
2017-07-26T23:14:09.817Z,17.80
2017-07-26T23:16:37.403Z,17.80
2017-07-26T23:19:04.989Z,17.80
2017-07-26T23:21:32.536Z,17.70
2017-07-26T23:24:00.850Z,17.70
2017-07-26T23:26:28.437Z,17.70
2017-07-26T23:28:55.992Z,17.70
2017-07-26T23:31:23.582Z,17.70
2017-07-26T23:33:51.164Z,17.70
2017-07-26T23:36:19.508Z,17.70
2017-07-26T23:38:47.049Z,17.70
2017-07-26T23:41:15.041Z,17.70
2017-07-26T23:43:42.581Z,17.60
2017-07-26T23:46:10.133Z,17.60
2017-07-26T23:48:37.717Z,17.60
2017-07-26T23:51:05.274Z,17.60
2017-07-26T23:53:33.005Z,17.60
2017-07-26T23:56:05.509Z,17.60
2017-07-26T23:58:33.049Z,17.60
